sensor_id;sensor_type;location;lat;lon;timestamp;pressure;altitude;pressure_sealevel;temperature;humidity
26083;BME280;13848;49.018;12.078;2023-05-25T00:01:46;98049.13;;;13.59;53.72
26083;BME280;13848;49.018;12.078;2023-05-25T00:04:12;98054.31;;;13.61;53.68
26083;BME280;13848;49.018;12.078;2023-05-25T00:06:38;98053.72;;;13.58;54.04
26083;BME280;13848;49.018;12.078;2023-05-25T00:09:05;98052.28;;;13.56;53.97
26083;BME280;13848;49.018;12.078;2023-05-25T00:11:31;98058.06;;;13.48;53.93
26083;BME280;13848;49.018;12.078;2023-05-25T00:13:57;98061.00;;;13.46;53.97
26083;BME280;13848;49.018;12.078;2023-05-25T00:16:23;98061.72;;;13.53;54.29
26083;BME280;13848;49.018;12.078;2023-05-25T00:18:49;98060.56;;;13.73;55.71
26083;BME280;13848;49.018;12.078;2023-05-25T00:21:15;98060.94;;;13.76;54.40
26083;BME280;13848;49.018;12.078;2023-05-25T00:23:41;98067.75;;;13.67;54.07
26083;BME280;13848;49.018;12.078;2023-05-25T00:26:08;98066.06;;;13.54;54.36
26083;BME280;13848;49.018;12.078;2023-05-25T00:28:34;98055.81;;;13.56;54.15
26083;BME280;13848;49.018;12.078;2023-05-25T00:31:00;98050.41;;;13.56;54.37
26083;BME280;13848;49.018;12.078;2023-05-25T00:33:26;98050.88;;;13.53;54.05
26083;BME280;13848;49.018;12.078;2023-05-25T00:35:52;98047.59;;;13.51;54.51
26083;BME280;13848;49.018;12.078;2023-05-25T00:38:18;98047.47;;;13.58;54.09
26083;BME280;13848;49.018;12.078;2023-05-25T00:40:44;98047.09;;;13.54;53.96
26083;BME280;13848;49.018;12.078;2023-05-25T00:43:12;98038.28;;;13.59;53.96
26083;BME280;13848;49.018;12.078;2023-05-25T00:45:38;98037.91;;;13.55;54.10
26083;BME280;13848;49.018;12.078;2023-05-25T00:48:04;98033.13;;;13.57;53.95
26083;BME280;13848;49.018;12.078;2023-05-25T00:50:36;98038.97;;;13.54;54.10
26083;BME280;13848;49.018;12.078;2023-05-25T00:53:03;98035.44;;;13.54;54.10
26083;BME280;13848;49.018;12.078;2023-05-25T00:55:32;98034.13;;;13.45;54.00
26083;BME280;13848;49.018;12.078;2023-05-25T00:58:01;98039.13;;;13.60;53.92
26083;BME280;13848;49.018;12.078;2023-05-25T01:00:32;98041.81;;;13.60;54.24
26083;BME280;13848;49.018;12.078;2023-05-25T01:02:58;98034.50;;;13.48;54.21
26083;BME280;13848;49.018;12.078;2023-05-25T01:05:26;98035.00;;;13.57;54.30
26083;BME280;13848;49.018;12.078;2023-05-25T01:07:54;98039.22;;;13.53;54.39
26083;BME280;13848;49.018;12.078;2023-05-25T01:10:23;98051.81;;;13.47;54.62
26083;BME280;13848;49.018;12.078;2023-05-25T01:12:50;98052.53;;;13.54;54.22
26083;BME280;13848;49.018;12.078;2023-05-25T01:15:19;98044.97;;;13.56;54.48
26083;BME280;13848;49.018;12.078;2023-05-25T01:17:47;98046.66;;;13.57;54.59
26083;BME280;13848;49.018;12.078;2023-05-25T01:20:13;98044.97;;;13.56;54.41
26083;BME280;13848;49.018;12.078;2023-05-25T01:22:44;98043.34;;;13.55;54.57
26083;BME280;13848;49.018;12.078;2023-05-25T01:25:15;98039.47;;;13.51;54.43
26083;BME280;13848;49.018;12.078;2023-05-25T01:27:48;98039.44;;;13.40;54.83
26083;BME280;13848;49.018;12.078;2023-05-25T01:30:17;98042.34;;;13.38;55.22
26083;BME280;13848;49.018;12.078;2023-05-25T01:32:44;98041.41;;;13.44;55.07
26083;BME280;13848;49.018;12.078;2023-05-25T01:35:10;98033.44;;;13.49;55.25
26083;BME280;13848;49.018;12.078;2023-05-25T01:37:45;98032.47;;;13.44;55.29
26083;BME280;13848;49.018;12.078;2023-05-25T01:40:12;98036.28;;;13.54;55.11
26083;BME280;13848;49.018;12.078;2023-05-25T01:42:38;98025.44;;;13.54;54.75
26083;BME280;13848;49.018;12.078;2023-05-25T01:45:05;98029.94;;;13.61;54.72
26083;BME280;13848;49.018;12.078;2023-05-25T01:47:41;98027.78;;;13.51;55.46
26083;BME280;13848;49.018;12.078;2023-05-25T01:50:19;98027.09;;;13.55;55.04
26083;BME280;13848;49.018;12.078;2023-05-25T01:52:52;98030.84;;;13.54;55.08
26083;BME280;13848;49.018;12.078;2023-05-25T01:55:21;98031.00;;;13.60;54.97
26083;BME280;13848;49.018;12.078;2023-05-25T01:57:52;98035.06;;;13.50;55.11
26083;BME280;13848;49.018;12.078;2023-05-25T02:00:20;98034.16;;;13.56;54.71
26083;BME280;13848;49.018;12.078;2023-05-25T02:02:47;98033.53;;;13.43;55.02
26083;BME280;13848;49.018;12.078;2023-05-25T02:05:14;98044.50;;;13.48;55.21
26083;BME280;13848;49.018;12.078;2023-05-25T02:07:40;98043.44;;;13.49;55.10
26083;BME280;13848;49.018;12.078;2023-05-25T02:10:08;98040.38;;;13.45;55.52
26083;BME280;13848;49.018;12.078;2023-05-25T02:12:34;98038.13;;;13.42;55.30
26083;BME280;13848;49.018;12.078;2023-05-25T02:15:00;98028.22;;;13.36;55.86
26083;BME280;13848;49.018;12.078;2023-05-25T02:17:26;98036.00;;;13.44;55.58
26083;BME280;13848;49.018;12.078;2023-05-25T02:19:52;98033.28;;;13.44;55.24
26083;BME280;13848;49.018;12.078;2023-05-25T02:22:19;98028.13;;;13.43;55.57
26083;BME280;13848;49.018;12.078;2023-05-25T02:24:45;98025.66;;;13.41;55.82
26083;BME280;13848;49.018;12.078;2023-05-25T02:27:12;98025.31;;;13.49;55.55
26083;BME280;13848;49.018;12.078;2023-05-25T02:29:38;98027.19;;;13.49;55.57
26083;BME280;13848;49.018;12.078;2023-05-25T02:32:05;98019.75;;;13.44;55.59
26083;BME280;13848;49.018;12.078;2023-05-25T02:34:31;98021.78;;;13.49;55.66
26083;BME280;13848;49.018;12.078;2023-05-25T02:36:56;98016.00;;;13.45;55.94
26083;BME280;13848;49.018;12.078;2023-05-25T02:39:22;98022.47;;;13.44;55.64
26083;BME280;13848;49.018;12.078;2023-05-25T02:41:48;98018.22;;;13.37;56.31
26083;BME280;13848;49.018;12.078;2023-05-25T02:44:16;98017.66;;;13.46;56.15
26083;BME280;13848;49.018;12.078;2023-05-25T02:46:41;98016.00;;;13.45;56.00
26083;BME280;13848;49.018;12.078;2023-05-25T02:49:07;98028.00;;;13.49;55.99
26083;BME280;13848;49.018;12.078;2023-05-25T02:51:33;98019.66;;;13.51;55.79
26083;BME280;13848;49.018;12.078;2023-05-25T02:53:59;98026.00;;;13.45;56.15
26083;BME280;13848;49.018;12.078;2023-05-25T02:56:25;98026.84;;;13.45;55.86
26083;BME280;13848;49.018;12.078;2023-05-25T02:58:51;98030.97;;;13.48;56.04
26083;BME280;13848;49.018;12.078;2023-05-25T03:01:18;98037.69;;;13.45;55.66
26083;BME280;13848;49.018;12.078;2023-05-25T03:03:45;98045.28;;;13.37;56.11
26083;BME280;13848;49.018;12.078;2023-05-25T03:06:11;98044.75;;;13.46;55.89
26083;BME280;13848;49.018;12.078;2023-05-25T03:08:37;98056.97;;;13.49;55.65
26083;BME280;13848;49.018;12.078;2023-05-25T03:11:03;98050.25;;;13.40;55.83
26083;BME280;13848;49.018;12.078;2023-05-25T03:13:28;98053.19;;;13.38;55.95
26083;BME280;13848;49.018;12.078;2023-05-25T03:15:54;98055.19;;;13.43;56.03
26083;BME280;13848;49.018;12.078;2023-05-25T03:18:22;98053.56;;;13.42;56.04
26083;BME280;13848;49.018;12.078;2023-05-25T03:20:48;98047.22;;;13.48;55.80
26083;BME280;13848;49.018;12.078;2023-05-25T03:23:14;98057.78;;;13.38;56.27
26083;BME280;13848;49.018;12.078;2023-05-25T03:25:39;98053.91;;;13.34;55.88
26083;BME280;13848;49.018;12.078;2023-05-25T03:28:05;98056.84;;;13.44;56.01
26083;BME280;13848;49.018;12.078;2023-05-25T03:30:31;98050.59;;;13.43;56.02
26083;BME280;13848;49.018;12.078;2023-05-25T03:32:57;98059.66;;;13.37;56.22
26083;BME280;13848;49.018;12.078;2023-05-25T03:35:24;98056.03;;;13.43;56.35
26083;BME280;13848;49.018;12.078;2023-05-25T03:37:50;98058.06;;;13.48;56.12
26083;BME280;13848;49.018;12.078;2023-05-25T03:40:16;98054.63;;;13.41;56.08
26083;BME280;13848;49.018;12.078;2023-05-25T03:42:42;98057.69;;;13.44;56.16
26083;BME280;13848;49.018;12.078;2023-05-25T03:45:09;98065.34;;;13.47;55.70
26083;BME280;13848;49.018;12.078;2023-05-25T03:47:35;98067.47;;;13.45;55.67
26083;BME280;13848;49.018;12.078;2023-05-25T03:50:01;98060.63;;;13.43;55.80
26083;BME280;13848;49.018;12.078;2023-05-25T03:52:29;98061.91;;;13.40;55.90
26083;BME280;13848;49.018;12.078;2023-05-25T03:54:54;98065.31;;;13.36;56.01
26083;BME280;13848;49.018;12.078;2023-05-25T03:57:20;98062.09;;;13.27;56.70
26083;BME280;13848;49.018;12.078;2023-05-25T03:59:46;98067.88;;;13.30;56.33
26083;BME280;13848;49.018;12.078;2023-05-25T04:02:12;98074.03;;;13.38;56.33
26083;BME280;13848;49.018;12.078;2023-05-25T04:04:38;98071.94;;;13.40;56.26
26083;BME280;13848;49.018;12.078;2023-05-25T04:07:04;98077.41;;;13.33;56.26
26083;BME280;13848;49.018;12.078;2023-05-25T04:09:31;98075.31;;;13.35;56.51
26083;BME280;13848;49.018;12.078;2023-05-25T04:11:57;98075.31;;;13.35;56.21
26083;BME280;13848;49.018;12.078;2023-05-25T04:14:23;98072.38;;;13.37;56.36
26083;BME280;13848;49.018;12.078;2023-05-25T04:16:49;98072.16;;;13.20;57.18
26083;BME280;13848;49.018;12.078;2023-05-25T04:19:15;98066.75;;;13.20;57.52
26083;BME280;13848;49.018;12.078;2023-05-25T04:21:41;98069.25;;;13.21;56.83
26083;BME280;13848;49.018;12.078;2023-05-25T04:24:07;98073.41;;;13.24;56.93
26083;BME280;13848;49.018;12.078;2023-05-25T04:26:34;98076.47;;;13.09;57.89
26083;BME280;13848;49.018;12.078;2023-05-25T04:29:00;98071.56;;;13.18;57.77
26083;BME280;13848;49.018;12.078;2023-05-25T04:31:26;98074.50;;;13.35;57.11
26083;BME280;13848;49.018;12.078;2023-05-25T04:33:52;98073.09;;;13.44;56.86
26083;BME280;13848;49.018;12.078;2023-05-25T04:36:18;98072.00;;;13.33;57.17
26083;BME280;13848;49.018;12.078;2023-05-25T04:38:44;98076.50;;;13.39;57.23
26083;BME280;13848;49.018;12.078;2023-05-25T04:41:10;98079.81;;;13.41;57.09
26083;BME280;13848;49.018;12.078;2023-05-25T04:43:37;98092.59;;;13.52;56.95
26083;BME280;13848;49.018;12.078;2023-05-25T04:46:03;98094.50;;;13.64;56.82
26083;BME280;13848;49.018;12.078;2023-05-25T04:48:29;98092.38;;;13.66;57.00
26083;BME280;13848;49.018;12.078;2023-05-25T04:50:55;98100.53;;;13.77;56.93
26083;BME280;13848;49.018;12.078;2023-05-25T04:53:21;98090.63;;;13.71;56.62
26083;BME280;13848;49.018;12.078;2023-05-25T04:55:47;98103.78;;;13.68;57.22
26083;BME280;13848;49.018;12.078;2023-05-25T04:58:13;98103.00;;;13.79;56.78
26083;BME280;13848;49.018;12.078;2023-05-25T05:00:40;98100.75;;;13.64;56.98
26083;BME280;13848;49.018;12.078;2023-05-25T05:03:06;98097.59;;;13.79;56.92
26083;BME280;13848;49.018;12.078;2023-05-25T05:05:33;98102.81;;;13.92;56.94
26083;BME280;13848;49.018;12.078;2023-05-25T05:07:59;98091.03;;;13.98;56.57
26083;BME280;13848;49.018;12.078;2023-05-25T05:10:25;98103.69;;;14.16;56.45
26083;BME280;13848;49.018;12.078;2023-05-25T05:12:51;98101.78;;;14.05;56.61
26083;BME280;13848;49.018;12.078;2023-05-25T05:15:17;98104.75;;;14.15;56.78
26083;BME280;13848;49.018;12.078;2023-05-25T05:17:44;98104.75;;;14.27;56.36
26083;BME280;13848;49.018;12.078;2023-05-25T05:20:11;98107.22;;;14.40;56.11
26083;BME280;13848;49.018;12.078;2023-05-25T05:22:37;98105.09;;;14.42;56.44
26083;BME280;13848;49.018;12.078;2023-05-25T05:25:03;98107.81;;;14.42;56.46
26083;BME280;13848;49.018;12.078;2023-05-25T05:27:29;98107.34;;;14.22;56.65
26083;BME280;13848;49.018;12.078;2023-05-25T05:29:55;98108.28;;;14.16;56.77
26083;BME280;13848;49.018;12.078;2023-05-25T05:32:21;98114.03;;;14.19;56.56
26083;BME280;13848;49.018;12.078;2023-05-25T05:34:49;98118.41;;;14.32;57.22
26083;BME280;13848;49.018;12.078;2023-05-25T05:37:14;98119.25;;;14.32;56.72
26083;BME280;13848;49.018;12.078;2023-05-25T05:39:40;98117.13;;;14.34;56.67
26083;BME280;13848;49.018;12.078;2023-05-25T05:42:06;98120.47;;;14.48;56.66
26083;BME280;13848;49.018;12.078;2023-05-25T05:44:32;98121.41;;;14.54;56.70
26083;BME280;13848;49.018;12.078;2023-05-25T05:46:58;98118.47;;;14.55;56.74
26083;BME280;13848;49.018;12.078;2023-05-25T05:49:24;98111.97;;;14.68;56.38
26083;BME280;13848;49.018;12.078;2023-05-25T05:51:52;98124.00;;;14.60;56.57
26083;BME280;13848;49.018;12.078;2023-05-25T05:54:18;98119.28;;;14.56;56.06
26083;BME280;13848;49.018;12.078;2023-05-25T05:56:44;98122.69;;;14.75;56.23
26083;BME280;13848;49.018;12.078;2023-05-25T05:59:10;98114.81;;;14.73;56.07
26083;BME280;13848;49.018;12.078;2023-05-25T06:01:37;98129.31;;;14.79;55.80
26083;BME280;13848;49.018;12.078;2023-05-25T06:04:04;98119.59;;;14.83;55.88
26083;BME280;13848;49.018;12.078;2023-05-25T06:06:30;98115.09;;;15.00;55.60
26083;BME280;13848;49.018;12.078;2023-05-25T06:08:57;98120.53;;;15.00;55.28
26083;BME280;13848;49.018;12.078;2023-05-25T06:11:23;98114.28;;;14.88;55.03
26083;BME280;13848;49.018;12.078;2023-05-25T06:13:49;98114.88;;;15.02;55.60
26083;BME280;13848;49.018;12.078;2023-05-25T06:16:15;98112.91;;;15.26;55.25
26083;BME280;13848;49.018;12.078;2023-05-25T06:18:41;98115.53;;;15.21;54.98
26083;BME280;13848;49.018;12.078;2023-05-25T06:21:07;98115.59;;;15.37;55.19
26083;BME280;13848;49.018;12.078;2023-05-25T06:23:33;98114.63;;;15.43;54.59
26083;BME280;13848;49.018;12.078;2023-05-25T06:26:03;98126.16;;;15.51;54.65
26083;BME280;13848;49.018;12.078;2023-05-25T06:28:29;98122.94;;;15.65;54.26
26083;BME280;13848;49.018;12.078;2023-05-25T06:30:55;98120.09;;;15.60;53.81
26083;BME280;13848;49.018;12.078;2023-05-25T06:33:21;98123.63;;;15.73;54.18
26083;BME280;13848;49.018;12.078;2023-05-25T06:35:47;98125.97;;;15.98;54.05
26083;BME280;13848;49.018;12.078;2023-05-25T06:38:13;98130.41;;;16.04;53.01
26083;BME280;13848;49.018;12.078;2023-05-25T06:40:40;98133.53;;;15.79;52.95
26083;BME280;13848;49.018;12.078;2023-05-25T06:43:07;98136.19;;;16.07;53.59
26083;BME280;13848;49.018;12.078;2023-05-25T06:45:33;98134.88;;;16.27;53.22
26083;BME280;13848;49.018;12.078;2023-05-25T06:47:59;98132.84;;;15.88;51.15
26083;BME280;13848;49.018;12.078;2023-05-25T06:50:25;98143.00;;;15.93;52.65
26083;BME280;13848;49.018;12.078;2023-05-25T06:52:51;98135.88;;;16.20;52.54
26083;BME280;13848;49.018;12.078;2023-05-25T06:55:17;98137.50;;;16.38;52.41
26083;BME280;13848;49.018;12.078;2023-05-25T06:57:43;98138.97;;;16.63;52.23
26083;BME280;13848;49.018;12.078;2023-05-25T07:00:12;98139.31;;;16.83;51.46
26083;BME280;13848;49.018;12.078;2023-05-25T07:02:38;98140.63;;;16.81;51.08
26083;BME280;13848;49.018;12.078;2023-05-25T07:05:05;98139.78;;;16.97;50.49
26083;BME280;13848;49.018;12.078;2023-05-25T07:07:31;98136.09;;;17.08;50.38
26083;BME280;13848;49.018;12.078;2023-05-25T07:09:57;98138.22;;;17.23;50.41
26083;BME280;13848;49.018;12.078;2023-05-25T07:12:23;98141.13;;;16.94;49.13
26083;BME280;13848;49.018;12.078;2023-05-25T07:14:49;98136.16;;;16.91;50.17
26083;BME280;13848;49.018;12.078;2023-05-25T07:17:16;98131.44;;;17.25;49.80
26083;BME280;13848;49.018;12.078;2023-05-25T07:19:42;98136.13;;;17.52;49.85
26083;BME280;13848;49.018;12.078;2023-05-25T07:22:08;98140.91;;;17.67;48.71
26083;BME280;13848;49.018;12.078;2023-05-25T07:24:34;98136.94;;;17.74;49.38
26083;BME280;13848;49.018;12.078;2023-05-25T07:27:00;98141.16;;;17.65;48.82
26083;BME280;13848;49.018;12.078;2023-05-25T07:29:26;98139.41;;;17.54;47.75
26083;BME280;13848;49.018;12.078;2023-05-25T07:31:52;98147.09;;;17.62;48.28
26083;BME280;13848;49.018;12.078;2023-05-25T07:34:20;98142.25;;;17.64;47.12
26083;BME280;13848;49.018;12.078;2023-05-25T07:36:46;98144.97;;;17.64;48.34
26083;BME280;13848;49.018;12.078;2023-05-25T07:39:12;98140.09;;;17.44;46.96
26083;BME280;13848;49.018;12.078;2023-05-25T07:41:38;98155.00;;;17.80;47.16
26083;BME280;13848;49.018;12.078;2023-05-25T07:44:04;98156.06;;;18.06;47.76
26083;BME280;13848;49.018;12.078;2023-05-25T07:46:30;98146.56;;;18.09;46.93
26083;BME280;13848;49.018;12.078;2023-05-25T07:48:56;98147.31;;;18.37;46.28
26083;BME280;13848;49.018;12.078;2023-05-25T07:51:24;98147.50;;;18.57;46.93
26083;BME280;13848;49.018;12.078;2023-05-25T07:53:50;98148.81;;;18.54;46.05
26083;BME280;13848;49.018;12.078;2023-05-25T07:56:16;98164.47;;;18.27;44.90
26083;BME280;13848;49.018;12.078;2023-05-25T07:58:42;98159.38;;;18.41;45.69
26083;BME280;13848;49.018;12.078;2023-05-25T08:01:08;98157.28;;;18.53;45.72
26083;BME280;13848;49.018;12.078;2023-05-25T08:03:33;98160.00;;;18.85;45.05
26083;BME280;13848;49.018;12.078;2023-05-25T08:05:59;98157.56;;;18.88;45.36
26083;BME280;13848;49.018;12.078;2023-05-25T08:08:27;98166.66;;;18.99;45.18
26083;BME280;13848;49.018;12.078;2023-05-25T08:10:52;98160.28;;;18.88;44.67
26083;BME280;13848;49.018;12.078;2023-05-25T08:13:18;98154.38;;;19.02;44.72
26083;BME280;13848;49.018;12.078;2023-05-25T08:15:44;98151.84;;;19.43;45.11
26083;BME280;13848;49.018;12.078;2023-05-25T08:18:10;98162.81;;;19.58;44.73
26083;BME280;13848;49.018;12.078;2023-05-25T08:20:36;98157.03;;;19.44;43.87
26083;BME280;13848;49.018;12.078;2023-05-25T08:23:02;98150.56;;;19.71;44.07
26083;BME280;13848;49.018;12.078;2023-05-25T08:25:30;98147.63;;;19.92;43.92
26083;BME280;13848;49.018;12.078;2023-05-25T08:27:55;98155.84;;;20.03;43.17
26083;BME280;13848;49.018;12.078;2023-05-25T08:30:22;98161.38;;;20.18;43.54
26083;BME280;13848;49.018;12.078;2023-05-25T08:32:48;98158.63;;;20.18;43.11
26083;BME280;13848;49.018;12.078;2023-05-25T08:35:13;98163.00;;;20.24;42.19
26083;BME280;13848;49.018;12.078;2023-05-25T08:37:39;98160.22;;;19.93;41.18
26083;BME280;13848;49.018;12.078;2023-05-25T08:40:07;98159.16;;;20.20;42.53
26083;BME280;13848;49.018;12.078;2023-05-25T08:42:36;98169.00;;;20.06;42.01
26083;BME280;13848;49.018;12.078;2023-05-25T08:45:02;98168.75;;;20.43;42.13
26083;BME280;13848;49.018;12.078;2023-05-25T08:47:30;98169.84;;;20.06;41.51
26083;BME280;13848;49.018;12.078;2023-05-25T08:49:56;98175.63;;;20.35;41.19
26083;BME280;13848;49.018;12.078;2023-05-25T08:52:25;98163.88;;;20.60;42.05
26083;BME280;13848;49.018;12.078;2023-05-25T08:54:55;98161.88;;;20.05;40.21
26083;BME280;13848;49.018;12.078;2023-05-25T08:57:28;98171.75;;;20.16;40.91
26083;BME280;13848;49.018;12.078;2023-05-25T09:00:02;98167.41;;;20.51;41.10
26083;BME280;13848;49.018;12.078;2023-05-25T09:02:33;98165.75;;;20.75;39.48
26083;BME280;13848;49.018;12.078;2023-05-25T09:05:00;98162.47;;;20.78;40.49
26083;BME280;13848;49.018;12.078;2023-05-25T09:07:27;98170.09;;;21.02;40.37
26083;BME280;13848;49.018;12.078;2023-05-25T09:09:54;98178.06;;;20.93;41.75
26083;BME280;13848;49.018;12.078;2023-05-25T09:12:21;98170.09;;;21.07;41.92
26083;BME280;13848;49.018;12.078;2023-05-25T09:14:47;98167.41;;;20.76;40.36
26083;BME280;13848;49.018;12.078;2023-05-25T09:17:15;98165.72;;;21.01;40.47
26083;BME280;13848;49.018;12.078;2023-05-25T09:19:41;98159.16;;;20.86;40.12
26083;BME280;13848;49.018;12.078;2023-05-25T09:22:08;98168.81;;;20.53;39.67
26083;BME280;13848;49.018;12.078;2023-05-25T09:24:34;98168.22;;;20.36;39.14
26083;BME280;13848;49.018;12.078;2023-05-25T09:27:00;98167.13;;;20.52;39.38
26083;BME280;13848;49.018;12.078;2023-05-25T09:29:26;98165.25;;;20.48;38.85
26083;BME280;13848;49.018;12.078;2023-05-25T09:31:52;98171.25;;;20.65;38.36
26083;BME280;13848;49.018;12.078;2023-05-25T09:34:19;98166.28;;;20.31;38.76
26083;BME280;13848;49.018;12.078;2023-05-25T09:36:45;98167.09;;;20.22;38.54
26083;BME280;13848;49.018;12.078;2023-05-25T09:39:11;98172.88;;;20.81;39.83
26083;BME280;13848;49.018;12.078;2023-05-25T09:41:39;98165.72;;;20.34;39.62
26083;BME280;13848;49.018;12.078;2023-05-25T09:44:06;98170.34;;;21.15;39.95
26083;BME280;13848;49.018;12.078;2023-05-25T09:46:32;98166.84;;;20.99;39.00
26083;BME280;13848;49.018;12.078;2023-05-25T09:48:59;98163.78;;;19.99;39.17
26083;BME280;13848;49.018;12.078;2023-05-25T09:51:26;98170.41;;;20.39;40.16
26083;BME280;13848;49.018;12.078;2023-05-25T09:53:52;98172.84;;;21.02;39.95
26083;BME280;13848;49.018;12.078;2023-05-25T09:56:18;98164.50;;;21.47;39.35
26083;BME280;13848;49.018;12.078;2023-05-25T09:58:44;98171.34;;;21.50;38.48
26083;BME280;13848;49.018;12.078;2023-05-25T10:01:10;98159.47;;;21.70;39.25
26083;BME280;13848;49.018;12.078;2023-05-25T10:03:43;98164.28;;;21.93;38.99
26083;BME280;13848;49.018;12.078;2023-05-25T10:06:10;98159.69;;;22.28;39.92
26083;BME280;13848;49.018;12.078;2023-05-25T10:08:38;98164.00;;;22.39;38.61
26083;BME280;13848;49.018;12.078;2023-05-25T10:11:04;98169.66;;;22.14;37.74
26083;BME280;13848;49.018;12.078;2023-05-25T10:13:31;98170.06;;;21.92;38.61
26083;BME280;13848;49.018;12.078;2023-05-25T10:15:58;98167.03;;;21.93;38.54
26083;BME280;13848;49.018;12.078;2023-05-25T10:18:27;98169.34;;;22.20;38.62
26083;BME280;13848;49.018;12.078;2023-05-25T10:20:59;98175.31;;;21.83;36.80
26083;BME280;13848;49.018;12.078;2023-05-25T10:23:27;98174.38;;;21.48;37.78
26083;BME280;13848;49.018;12.078;2023-05-25T10:25:59;98174.38;;;21.54;36.97
26083;BME280;13848;49.018;12.078;2023-05-25T10:28:28;98168.81;;;21.69;37.27
26083;BME280;13848;49.018;12.078;2023-05-25T10:30:55;98164.16;;;21.69;37.28
26083;BME280;13848;49.018;12.078;2023-05-25T10:33:22;98163.66;;;22.07;37.52
26083;BME280;13848;49.018;12.078;2023-05-25T10:35:49;98166.16;;;21.43;37.94
26083;BME280;13848;49.018;12.078;2023-05-25T10:38:17;98159.72;;;22.23;38.44
26083;BME280;13848;49.018;12.078;2023-05-25T10:40:44;98173.97;;;22.30;37.36
26083;BME280;13848;49.018;12.078;2023-05-25T10:43:13;98174.03;;;22.20;36.10
26083;BME280;13848;49.018;12.078;2023-05-25T10:45:39;98158.53;;;22.39;37.17
26083;BME280;13848;49.018;12.078;2023-05-25T10:48:05;98163.25;;;22.63;36.63
26083;BME280;13848;49.018;12.078;2023-05-25T10:50:34;98158.53;;;23.02;37.54
26083;BME280;13848;49.018;12.078;2023-05-25T10:53:02;98152.41;;;23.05;36.33
26083;BME280;13848;49.018;12.078;2023-05-25T10:55:41;98156.34;;;22.99;36.33
26083;BME280;13848;49.018;12.078;2023-05-25T10:58:08;98160.56;;;22.87;35.48
26083;BME280;13848;49.018;12.078;2023-05-25T11:00:37;98157.56;;;22.83;36.33
26083;BME280;13848;49.018;12.078;2023-05-25T11:03:03;98148.28;;;23.32;36.32
26083;BME280;13848;49.018;12.078;2023-05-25T11:05:32;98152.41;;;23.53;36.18
26083;BME280;13848;49.018;12.078;2023-05-25T11:07:59;98158.75;;;23.30;35.29
26083;BME280;13848;49.018;12.078;2023-05-25T11:10:51;98155.72;;;23.31;35.49
26083;BME280;13848;49.018;12.078;2023-05-25T11:13:21;98159.34;;;23.51;36.39
26083;BME280;13848;49.018;12.078;2023-05-25T11:16:06;98154.06;;;23.54;35.38
26083;BME280;13848;49.018;12.078;2023-05-25T11:18:36;98153.59;;;23.47;35.51
26083;BME280;13848;49.018;12.078;2023-05-25T11:21:12;98152.66;;;23.33;34.03
26083;BME280;13848;49.018;12.078;2023-05-25T11:23:51;98141.56;;;23.43;34.86
26083;BME280;13848;49.018;12.078;2023-05-25T11:26:19;98144.69;;;23.79;35.69
26083;BME280;13848;49.018;12.078;2023-05-25T11:28:46;98141.03;;;23.84;34.79
26083;BME280;13848;49.018;12.078;2023-05-25T11:31:13;98132.59;;;23.75;35.56
26083;BME280;13848;49.018;12.078;2023-05-25T11:33:39;98146.84;;;24.01;35.58
26083;BME280;13848;49.018;12.078;2023-05-25T11:36:06;98140.72;;;23.67;34.18
26083;BME280;13848;49.018;12.078;2023-05-25T11:38:33;98135.06;;;23.77;34.57
26083;BME280;13848;49.018;12.078;2023-05-25T11:41:02;98125.53;;;23.88;34.74
26083;BME280;13848;49.018;12.078;2023-05-25T11:43:28;98124.88;;;23.53;34.63
26083;BME280;13848;49.018;12.078;2023-05-25T11:45:55;98128.78;;;23.95;35.64
26083;BME280;13848;49.018;12.078;2023-05-25T11:48:22;98129.72;;;23.19;34.53
26083;BME280;13848;49.018;12.078;2023-05-25T11:51:03;98127.25;;;23.41;34.56
26083;BME280;13848;49.018;12.078;2023-05-25T11:53:29;98135.06;;;23.53;35.23
26083;BME280;13848;49.018;12.078;2023-05-25T11:55:55;98130.13;;;23.55;34.69
26083;BME280;13848;49.018;12.078;2023-05-25T11:58:21;98124.66;;;23.74;35.03
26083;BME280;13848;49.018;12.078;2023-05-25T12:00:46;98130.81;;;23.42;32.71
26083;BME280;13848;49.018;12.078;2023-05-25T12:06:06;98126.66;;;23.44;34.64
26083;BME280;13848;49.018;12.078;2023-05-25T12:08:32;98125.22;;;23.71;35.19
26083;BME280;13848;49.018;12.078;2023-05-25T12:10:58;98116.13;;;23.51;34.45
26083;BME280;13848;49.018;12.078;2023-05-25T12:13:24;98112.53;;;23.51;34.21
26083;BME280;13848;49.018;12.078;2023-05-25T12:15:50;98111.34;;;23.14;34.84
26083;BME280;13848;49.018;12.078;2023-05-25T12:18:17;98125.28;;;23.23;34.33
26083;BME280;13848;49.018;12.078;2023-05-25T12:20:43;98113.88;;;23.53;35.45
26083;BME280;13848;49.018;12.078;2023-05-25T12:23:11;98117.59;;;23.44;34.99
26083;BME280;13848;49.018;12.078;2023-05-25T12:25:37;98109.94;;;23.17;35.00
26083;BME280;13848;49.018;12.078;2023-05-25T12:28:09;98114.25;;;23.23;34.76
26083;BME280;13848;49.018;12.078;2023-05-25T12:30:35;98100.69;;;23.07;34.75
26083;BME280;13848;49.018;12.078;2023-05-25T12:33:01;98100.06;;;22.87;34.46
26083;BME280;13848;49.018;12.078;2023-05-25T12:35:27;98100.38;;;23.33;35.35
26083;BME280;13848;49.018;12.078;2023-05-25T12:38:09;98104.78;;;23.34;34.93
26083;BME280;13848;49.018;12.078;2023-05-25T12:40:35;98096.50;;;22.91;35.23
26083;BME280;13848;49.018;12.078;2023-05-25T12:43:01;98097.94;;;23.07;35.93
26083;BME280;13848;49.018;12.078;2023-05-25T12:45:27;98093.34;;;23.03;35.61
26083;BME280;13848;49.018;12.078;2023-05-25T12:47:53;98099.50;;;23.38;36.15
26083;BME280;13848;49.018;12.078;2023-05-25T12:50:19;98089.19;;;23.24;35.39
26083;BME280;13848;49.018;12.078;2023-05-25T12:52:46;98094.16;;;23.03;35.22